sensor_id;sensor_type;location;lat;lon;timestamp;P1;durP1;ratioP1;P2;durP2;ratioP2
58528;SDS011;44322;52.968;5.816;2022-12-01T00:19:40;87.40;;;37.67;;
58528;SDS011;44322;52.968;5.816;2022-12-01T00:22:05;67.65;;;29.83;;
58528;SDS011;44322;52.968;5.816;2022-12-01T00:24:31;84.68;;;37.10;;
58528;SDS011;44322;52.968;5.816;2022-12-01T00:26:56;84.43;;;38.33;;
58528;SDS011;44322;52.968;5.816;2022-12-01T00:29:22;82.38;;;36.63;;
58528;SDS011;44322;52.968;5.816;2022-12-01T00:31:48;86.15;;;38.05;;
58528;SDS011;44322;52.968;5.816;2022-12-01T00:34:19;65.80;;;31.15;;
58528;SDS011;44322;52.968;5.816;2022-12-01T00:36:47;77.25;;;33.40;;
58528;SDS011;44322;52.968;5.816;2022-12-01T00:39:12;78.53;;;33.63;;
58528;SDS011;44322;52.968;5.816;2022-12-01T00:41:38;81.80;;;36.38;;
58528;SDS011;44322;52.968;5.816;2022-12-01T00:44:03;79.55;;;34.63;;
58528;SDS011;44322;52.968;5.816;2022-12-01T00:46:29;74.25;;;33.38;;
58528;SDS011;44322;52.968;5.816;2022-12-01T01:01:00;84.97;;;35.33;;
58528;SDS011;44322;52.968;5.816;2022-12-01T01:03:26;90.82;;;37.78;;
58528;SDS011;44322;52.968;5.816;2022-12-01T01:05:52;91.53;;;38.65;;
58528;SDS011;44322;52.968;5.816;2022-12-01T01:08:18;90.00;;;37.75;;
58528;SDS011;44322;52.968;5.816;2022-12-01T01:10:44;83.38;;;35.08;;
58528;SDS011;44322;52.968;5.816;2022-12-01T01:49:35;86.38;;;35.15;;
58528;SDS011;44322;52.968;5.816;2022-12-01T01:52:01;83.30;;;34.80;;
58528;SDS011;44322;52.968;5.816;2022-12-01T01:54:30;84.27;;;36.33;;
58528;SDS011;44322;52.968;5.816;2022-12-01T01:57:00;95.93;;;39.05;;
58528;SDS011;44322;52.968;5.816;2022-12-01T02:09:14;81.18;;;34.70;;
58528;SDS011;44322;52.968;5.816;2022-12-01T02:11:44;98.72;;;39.47;;
58528;SDS011;44322;52.968;5.816;2022-12-01T02:14:21;80.57;;;31.38;;
58528;SDS011;44322;52.968;5.816;2022-12-01T02:17:01;97.93;;;40.25;;
58528;SDS011;44322;52.968;5.816;2022-12-01T02:20:10;97.18;;;39.88;;
58528;SDS011;44322;52.968;5.816;2022-12-01T02:34:22;80.85;;;33.40;;
58528;SDS011;44322;52.968;5.816;2022-12-01T02:36:55;81.38;;;34.20;;
58528;SDS011;44322;52.968;5.816;2022-12-01T02:39:31;89.47;;;37.65;;
58528;SDS011;44322;52.968;5.816;2022-12-01T02:42:04;94.00;;;37.47;;
58528;SDS011;44322;52.968;5.816;2022-12-01T02:44:34;99.93;;;37.97;;
58528;SDS011;44322;52.968;5.816;2022-12-01T02:47:06;94.85;;;37.25;;
58528;SDS011;44322;52.968;5.816;2022-12-01T02:49:35;93.72;;;38.65;;
58528;SDS011;44322;52.968;5.816;2022-12-01T02:52:05;73.28;;;31.85;;
58528;SDS011;44322;52.968;5.816;2022-12-01T02:54:31;93.63;;;36.03;;
58528;SDS011;44322;52.968;5.816;2022-12-01T02:56:58;91.47;;;37.58;;
58528;SDS011;44322;52.968;5.816;2022-12-01T03:11:00;92.13;;;35.38;;
58528;SDS011;44322;52.968;5.816;2022-12-01T03:13:46;97.97;;;39.75;;
58528;SDS011;44322;52.968;5.816;2022-12-01T04:31:08;84.95;;;34.70;;
58528;SDS011;44322;52.968;5.816;2022-12-01T04:33:33;88.82;;;36.92;;
58528;SDS011;44322;52.968;5.816;2022-12-01T04:35:59;94.65;;;37.83;;
58528;SDS011;44322;52.968;5.816;2022-12-01T04:38:25;97.75;;;38.78;;
58528;SDS011;44322;52.968;5.816;2022-12-01T04:40:52;84.18;;;35.83;;
58528;SDS011;44322;52.968;5.816;2022-12-01T04:43:17;91.88;;;39.22;;
58528;SDS011;44322;52.968;5.816;2022-12-01T04:45:44;85.53;;;37.22;;
58528;SDS011;44322;52.968;5.816;2022-12-01T04:48:10;85.30;;;37.03;;
58528;SDS011;44322;52.968;5.816;2022-12-01T04:50:35;75.38;;;32.28;;
58528;SDS011;44322;52.968;5.816;2022-12-01T04:53:01;83.88;;;35.67;;
58528;SDS011;44322;52.968;5.816;2022-12-01T04:55:26;83.78;;;35.88;;
58528;SDS011;44322;52.968;5.816;2022-12-01T04:57:52;84.43;;;35.28;;
58528;SDS011;44322;52.968;5.816;2022-12-01T05:00:17;91.10;;;38.13;;
58528;SDS011;44322;52.968;5.816;2022-12-01T05:02:43;90.40;;;37.50;;
58528;SDS011;44322;52.968;5.816;2022-12-01T05:05:09;89.18;;;36.38;;
58528;SDS011;44322;52.968;5.816;2022-12-01T05:07:35;80.05;;;33.97;;
58528;SDS011;44322;52.968;5.816;2022-12-01T05:10:01;89.85;;;37.67;;
58528;SDS011;44322;52.968;5.816;2022-12-01T05:12:27;89.43;;;37.67;;
58528;SDS011;44322;52.968;5.816;2022-12-01T05:14:53;88.22;;;36.42;;
58528;SDS011;44322;52.968;5.816;2022-12-01T05:17:18;94.22;;;37.15;;
58528;SDS011;44322;52.968;5.816;2022-12-01T05:19:44;87.93;;;37.72;;
58528;SDS011;44322;52.968;5.816;2022-12-01T05:28:16;94.72;;;39.67;;
58528;SDS011;44322;52.968;5.816;2022-12-01T05:30:47;91.50;;;38.60;;
58528;SDS011;44322;52.968;5.816;2022-12-01T05:33:13;97.05;;;38.08;;
58528;SDS011;44322;52.968;5.816;2022-12-01T05:35:38;92.53;;;39.22;;
58528;SDS011;44322;52.968;5.816;2022-12-01T05:38:04;101.95;;;39.40;;
58528;SDS011;44322;52.968;5.816;2022-12-01T05:40:30;102.15;;;39.65;;
58528;SDS011;44322;52.968;5.816;2022-12-01T05:42:56;79.82;;;32.53;;
58528;SDS011;44322;52.968;5.816;2022-12-01T05:45:22;96.22;;;38.17;;
58528;SDS011;44322;52.968;5.816;2022-12-01T05:47:48;79.03;;;33.55;;
58528;SDS011;44322;52.968;5.816;2022-12-01T05:53:19;95.15;;;38.63;;
58528;SDS011;44322;52.968;5.816;2022-12-01T05:55:45;97.40;;;37.80;;
58528;SDS011;44322;52.968;5.816;2022-12-01T06:06:30;97.97;;;39.60;;
58528;SDS011;44322;52.968;5.816;2022-12-01T06:11:59;100.28;;;39.15;;
58528;SDS011;44322;52.968;5.816;2022-12-01T06:16:12;77.83;;;30.77;;
58528;SDS011;44322;52.968;5.816;2022-12-01T06:26:36;101.80;;;38.40;;
58528;SDS011;44322;52.968;5.816;2022-12-01T06:29:55;95.63;;;38.72;;
58528;SDS011;44322;52.968;5.816;2022-12-01T06:33:14;101.65;;;39.50;;
58528;SDS011;44322;52.968;5.816;2022-12-01T06:36:16;82.78;;;32.05;;
58528;SDS011;44322;52.968;5.816;2022-12-01T06:47:53;85.45;;;35.03;;
58528;SDS011;44322;52.968;5.816;2022-12-01T07:00:33;99.05;;;39.22;;
58528;SDS011;44322;52.968;5.816;2022-12-01T07:03:00;93.35;;;38.92;;
58528;SDS011;44322;52.968;5.816;2022-12-01T07:05:32;100.72;;;36.22;;
58528;SDS011;44322;52.968;5.816;2022-12-01T07:08:00;85.38;;;34.35;;
58528;SDS011;44322;52.968;5.816;2022-12-01T07:10:29;103.35;;;40.95;;
58528;SDS011;44322;52.968;5.816;2022-12-01T07:13:01;72.75;;;30.05;;
58528;SDS011;44322;52.968;5.816;2022-12-01T07:15:26;94.47;;;37.10;;
58528;SDS011;44322;52.968;5.816;2022-12-01T07:17:52;92.22;;;36.22;;
58528;SDS011;44322;52.968;5.816;2022-12-01T07:20:18;95.38;;;39.08;;
58528;SDS011;44322;52.968;5.816;2022-12-01T07:22:44;92.72;;;36.30;;
58528;SDS011;44322;52.968;5.816;2022-12-01T07:25:09;91.75;;;35.72;;
58528;SDS011;44322;52.968;5.816;2022-12-01T07:27:35;81.60;;;34.22;;
58528;SDS011;44322;52.968;5.816;2022-12-01T07:30:01;74.07;;;30.05;;
58528;SDS011;44322;52.968;5.816;2022-12-01T07:32:26;90.03;;;36.53;;
58528;SDS011;44322;52.968;5.816;2022-12-01T07:34:52;95.95;;;38.25;;
58528;SDS011;44322;52.968;5.816;2022-12-01T07:37:17;98.50;;;38.35;;
58528;SDS011;44322;52.968;5.816;2022-12-01T07:39:43;102.10;;;38.75;;
58528;SDS011;44322;52.968;5.816;2022-12-01T07:42:08;89.63;;;36.78;;
58528;SDS011;44322;52.968;5.816;2022-12-01T07:44:34;81.60;;;33.38;;
58528;SDS011;44322;52.968;5.816;2022-12-01T07:46:59;89.93;;;36.45;;
58528;SDS011;44322;52.968;5.816;2022-12-01T07:49:25;81.05;;;34.53;;
58528;SDS011;44322;52.968;5.816;2022-12-01T07:51:51;84.30;;;35.33;;
58528;SDS011;44322;52.968;5.816;2022-12-01T07:54:16;80.15;;;32.83;;
58528;SDS011;44322;52.968;5.816;2022-12-01T07:56:44;92.80;;;35.75;;
58528;SDS011;44322;52.968;5.816;2022-12-01T07:59:09;87.38;;;34.63;;
58528;SDS011;44322;52.968;5.816;2022-12-01T08:01:36;92.65;;;37.92;;
58528;SDS011;44322;52.968;5.816;2022-12-01T08:04:02;89.93;;;36.35;;
58528;SDS011;44322;52.968;5.816;2022-12-01T08:06:28;85.47;;;35.88;;
58528;SDS011;44322;52.968;5.816;2022-12-01T08:08:53;89.72;;;36.55;;
58528;SDS011;44322;52.968;5.816;2022-12-01T08:11:23;83.60;;;35.05;;
58528;SDS011;44322;52.968;5.816;2022-12-01T08:13:50;78.93;;;34.35;;
58528;SDS011;44322;52.968;5.816;2022-12-01T08:16:18;83.80;;;34.55;;
58528;SDS011;44322;52.968;5.816;2022-12-01T08:18:44;92.97;;;37.65;;
58528;SDS011;44322;52.968;5.816;2022-12-01T08:21:11;86.10;;;34.92;;
58528;SDS011;44322;52.968;5.816;2022-12-01T08:23:39;90.82;;;35.90;;
58528;SDS011;44322;52.968;5.816;2022-12-01T08:26:06;90.50;;;37.75;;
58528;SDS011;44322;52.968;5.816;2022-12-01T08:28:34;75.78;;;32.83;;
58528;SDS011;44322;52.968;5.816;2022-12-01T08:31:07;88.32;;;35.83;;
58528;SDS011;44322;52.968;5.816;2022-12-01T08:33:34;92.43;;;36.53;;
58528;SDS011;44322;52.968;5.816;2022-12-01T08:36:00;85.95;;;35.03;;
58528;SDS011;44322;52.968;5.816;2022-12-01T08:44:25;89.78;;;35.88;;
58528;SDS011;44322;52.968;5.816;2022-12-01T08:46:55;69.20;;;28.13;;
58528;SDS011;44322;52.968;5.816;2022-12-01T08:50:31;85.18;;;34.20;;
58528;SDS011;44322;52.968;5.816;2022-12-01T08:53:00;83.35;;;33.03;;
58528;SDS011;44322;52.968;5.816;2022-12-01T08:55:52;84.75;;;35.33;;
58528;SDS011;44322;52.968;5.816;2022-12-01T08:58:18;78.53;;;32.45;;
58528;SDS011;44322;52.968;5.816;2022-12-01T09:03:35;90.63;;;34.78;;
58528;SDS011;44322;52.968;5.816;2022-12-01T09:12:11;88.20;;;34.10;;
58528;SDS011;44322;52.968;5.816;2022-12-01T09:14:40;81.18;;;33.05;;
58528;SDS011;44322;52.968;5.816;2022-12-01T09:17:09;81.57;;;33.80;;
58528;SDS011;44322;52.968;5.816;2022-12-01T09:19:35;77.45;;;32.97;;
58528;SDS011;44322;52.968;5.816;2022-12-01T09:22:01;77.30;;;32.30;;
58528;SDS011;44322;52.968;5.816;2022-12-01T09:24:26;79.88;;;33.42;;
58528;SDS011;44322;52.968;5.816;2022-12-01T09:26:56;77.05;;;33.55;;
58528;SDS011;44322;52.968;5.816;2022-12-01T09:29:22;81.07;;;32.33;;
58528;SDS011;44322;52.968;5.816;2022-12-01T09:31:48;75.07;;;30.77;;
58528;SDS011;44322;52.968;5.816;2022-12-01T09:34:14;75.75;;;30.98;;
58528;SDS011;44322;52.968;5.816;2022-12-01T09:36:42;70.90;;;30.70;;
58528;SDS011;44322;52.968;5.816;2022-12-01T09:39:10;71.03;;;30.13;;
58528;SDS011;44322;52.968;5.816;2022-12-01T09:41:45;69.65;;;28.77;;
58528;SDS011;44322;52.968;5.816;2022-12-01T09:44:33;71.28;;;30.13;;
58528;SDS011;44322;52.968;5.816;2022-12-01T09:47:02;72.68;;;29.90;;
58528;SDS011;44322;52.968;5.816;2022-12-01T09:52:14;62.80;;;28.35;;
58528;SDS011;44322;52.968;5.816;2022-12-01T09:54:42;61.65;;;27.42;;
58528;SDS011;44322;52.968;5.816;2022-12-01T10:02:58;61.50;;;27.08;;
58528;SDS011;44322;52.968;5.816;2022-12-01T10:05:40;56.80;;;26.50;;
58528;SDS011;44322;52.968;5.816;2022-12-01T10:08:17;61.45;;;26.70;;
58528;SDS011;44322;52.968;5.816;2022-12-01T10:10:45;54.78;;;24.65;;
58528;SDS011;44322;52.968;5.816;2022-12-01T10:13:16;56.40;;;24.65;;
58528;SDS011;44322;52.968;5.816;2022-12-01T10:21:33;49.33;;;22.08;;
58528;SDS011;44322;52.968;5.816;2022-12-01T10:29:26;41.00;;;19.42;;
58528;SDS011;44322;52.968;5.816;2022-12-01T10:31:53;40.58;;;21.00;;
58528;SDS011;44322;52.968;5.816;2022-12-01T10:34:31;37.08;;;19.83;;
58528;SDS011;44322;52.968;5.816;2022-12-01T10:36:58;36.28;;;18.80;;
58528;SDS011;44322;52.968;5.816;2022-12-01T10:39:43;34.30;;;18.58;;
58528;SDS011;44322;52.968;5.816;2022-12-01T10:42:16;35.55;;;17.80;;
58528;SDS011;44322;52.968;5.816;2022-12-01T10:44:42;36.53;;;18.42;;
58528;SDS011;44322;52.968;5.816;2022-12-01T10:47:22;33.40;;;17.65;;
58528;SDS011;44322;52.968;5.816;2022-12-01T10:49:49;32.90;;;17.73;;
58528;SDS011;44322;52.968;5.816;2022-12-01T10:55:05;33.83;;;18.70;;
58528;SDS011;44322;52.968;5.816;2022-12-01T10:57:51;34.95;;;17.52;;
58528;SDS011;44322;52.968;5.816;2022-12-01T11:00:20;30.08;;;17.00;;
58528;SDS011;44322;52.968;5.816;2022-12-01T11:02:47;32.28;;;16.73;;
58528;SDS011;44322;52.968;5.816;2022-12-01T11:05:29;30.23;;;17.15;;
58528;SDS011;44322;52.968;5.816;2022-12-01T11:07:57;31.30;;;16.38;;
58528;SDS011;44322;52.968;5.816;2022-12-01T11:10:29;27.48;;;16.13;;
58528;SDS011;44322;52.968;5.816;2022-12-01T11:15:52;29.30;;;15.90;;
58528;SDS011;44322;52.968;5.816;2022-12-01T11:18:26;27.27;;;15.85;;
58528;SDS011;44322;52.968;5.816;2022-12-01T11:23:36;26.45;;;15.20;;
58528;SDS011;44322;52.968;5.816;2022-12-01T11:26:17;28.15;;;15.65;;
58528;SDS011;44322;52.968;5.816;2022-12-01T11:29:04;25.60;;;15.40;;
58528;SDS011;44322;52.968;5.816;2022-12-01T11:31:41;26.63;;;15.13;;
58528;SDS011;44322;52.968;5.816;2022-12-01T11:34:22;22.33;;;13.68;;
58528;SDS011;44322;52.968;5.816;2022-12-01T11:36:50;24.42;;;14.73;;
58528;SDS011;44322;52.968;5.816;2022-12-01T11:39:26;23.42;;;13.65;;
58528;SDS011;44322;52.968;5.816;2022-12-01T11:42:00;31.55;;;17.17;;
58528;SDS011;44322;52.968;5.816;2022-12-01T11:44:28;26.58;;;15.60;;
58528;SDS011;44322;52.968;5.816;2022-12-01T11:46:55;27.90;;;15.07;;
58528;SDS011;44322;52.968;5.816;2022-12-01T11:49:24;28.30;;;15.50;;
58528;SDS011;44322;52.968;5.816;2022-12-01T11:51:52;26.52;;;15.55;;
58528;SDS011;44322;52.968;5.816;2022-12-01T11:54:21;26.38;;;15.55;;
58528;SDS011;44322;52.968;5.816;2022-12-01T11:56:51;29.58;;;15.65;;
58528;SDS011;44322;52.968;5.816;2022-12-01T11:59:21;26.50;;;15.93;;
58528;SDS011;44322;52.968;5.816;2022-12-01T12:07:24;25.17;;;15.00;;
58528;SDS011;44322;52.968;5.816;2022-12-01T12:26:19;25.42;;;15.20;;
58528;SDS011;44322;52.968;5.816;2022-12-01T12:28:54;22.88;;;13.27;;
58528;SDS011;44322;52.968;5.816;2022-12-01T12:37:01;24.40;;;14.40;;
58528;SDS011;44322;52.968;5.816;2022-12-01T12:50:24;21.77;;;13.88;;
58528;SDS011;44322;52.968;5.816;2022-12-01T12:52:58;20.67;;;12.48;;
58528;SDS011;44322;52.968;5.816;2022-12-01T12:55:32;20.23;;;13.02;;
58528;SDS011;44322;52.968;5.816;2022-12-01T12:58:10;20.15;;;12.77;;
58528;SDS011;44322;52.968;5.816;2022-12-01T13:00:40;23.58;;;14.23;;
58528;SDS011;44322;52.968;5.816;2022-12-01T13:03:18;25.75;;;13.48;;
58528;SDS011;44322;52.968;5.816;2022-12-01T13:08:23;23.58;;;13.23;;
58528;SDS011;44322;52.968;5.816;2022-12-01T13:16:45;20.02;;;12.02;;
58528;SDS011;44322;52.968;5.816;2022-12-01T13:19:15;24.23;;;13.13;;
58528;SDS011;44322;52.968;5.816;2022-12-01T13:21:45;21.42;;;12.38;;
58528;SDS011;44322;52.968;5.816;2022-12-01T13:24:14;24.08;;;13.18;;
58528;SDS011;44322;52.968;5.816;2022-12-01T13:26:42;20.40;;;12.60;;
58528;SDS011;44322;52.968;5.816;2022-12-01T13:29:17;26.95;;;14.55;;
58528;SDS011;44322;52.968;5.816;2022-12-01T13:31:45;21.98;;;13.23;;
58528;SDS011;44322;52.968;5.816;2022-12-01T13:34:55;23.77;;;13.27;;
58528;SDS011;44322;52.968;5.816;2022-12-01T13:37:04;24.67;;;14.15;;
58528;SDS011;44322;52.968;5.816;2022-12-01T13:39:30;23.50;;;13.68;;
58528;SDS011;44322;52.968;5.816;2022-12-01T13:47:57;21.52;;;12.73;;
58528;SDS011;44322;52.968;5.816;2022-12-01T13:56:57;19.08;;;11.73;;
58528;SDS011;44322;52.968;5.816;2022-12-01T14:00:27;19.00;;;11.30;;
58528;SDS011;44322;52.968;5.816;2022-12-01T14:05:43;24.67;;;12.68;;
58528;SDS011;44322;52.968;5.816;2022-12-01T14:08:25;21.88;;;11.65;;
58528;SDS011;44322;52.968;5.816;2022-12-01T14:10:53;23.00;;;12.73;;
58528;SDS011;44322;52.968;5.816;2022-12-01T14:13:23;21.58;;;12.93;;
58528;SDS011;44322;52.968;5.816;2022-12-01T14:15:53;21.10;;;12.68;;
58528;SDS011;44322;52.968;5.816;2022-12-01T14:21:02;22.27;;;12.55;;
58528;SDS011;44322;52.968;5.816;2022-12-01T14:23:32;18.58;;;11.65;;
58528;SDS011;44322;52.968;5.816;2022-12-01T14:26:10;18.95;;;11.57;;
58528;SDS011;44322;52.968;5.816;2022-12-01T14:36:36;19.67;;;12.05;;
58528;SDS011;44322;52.968;5.816;2022-12-01T14:39:05;22.05;;;12.50;;
58528;SDS011;44322;52.968;5.816;2022-12-01T14:46:44;20.70;;;12.03;;
58528;SDS011;44322;52.968;5.816;2022-12-01T14:49:16;19.60;;;11.77;;
58528;SDS011;44322;52.968;5.816;2022-12-01T14:51:46;16.00;;;10.55;;
58528;SDS011;44322;52.968;5.816;2022-12-01T14:54:48;24.67;;;12.98;;
58528;SDS011;44322;52.968;5.816;2022-12-01T14:57:08;18.95;;;11.05;;
58528;SDS011;44322;52.968;5.816;2022-12-01T14:59:34;22.75;;;11.45;;
58528;SDS011;44322;52.968;5.816;2022-12-01T15:02:04;19.15;;;11.43;;
58528;SDS011;44322;52.968;5.816;2022-12-01T15:04:34;22.98;;;12.80;;
58528;SDS011;44322;52.968;5.816;2022-12-01T15:09:27;23.40;;;12.73;;
58528;SDS011;44322;52.968;5.816;2022-12-01T15:11:54;22.83;;;13.32;;
58528;SDS011;44322;52.968;5.816;2022-12-01T15:16:59;25.38;;;13.18;;
58528;SDS011;44322;52.968;5.816;2022-12-01T15:19:37;25.25;;;13.48;;
58528;SDS011;44322;52.968;5.816;2022-12-01T15:22:05;21.63;;;12.43;;
58528;SDS011;44322;52.968;5.816;2022-12-01T15:24:35;21.40;;;12.32;;
58528;SDS011;44322;52.968;5.816;2022-12-01T15:27:01;22.55;;;12.43;;
58528;SDS011;44322;52.968;5.816;2022-12-01T15:29:30;22.10;;;12.20;;
58528;SDS011;44322;52.968;5.816;2022-12-01T15:32:06;24.35;;;13.27;;
58528;SDS011;44322;52.968;5.816;2022-12-01T15:34:39;24.95;;;15.20;;
58528;SDS011;44322;52.968;5.816;2022-12-01T15:37:08;23.85;;;13.80;;
58528;SDS011;44322;52.968;5.816;2022-12-01T15:42:39;27.00;;;16.10;;
58528;SDS011;44322;52.968;5.816;2022-12-01T15:47:47;30.75;;;18.05;;
58528;SDS011;44322;52.968;5.816;2022-12-01T15:52:59;26.27;;;15.68;;
58528;SDS011;44322;52.968;5.816;2022-12-01T15:55:28;24.45;;;14.90;;
58528;SDS011;44322;52.968;5.816;2022-12-01T15:57:56;30.92;;;16.45;;
58528;SDS011;44322;52.968;5.816;2022-12-01T16:00:22;28.10;;;15.48;;
58528;SDS011;44322;52.968;5.816;2022-12-01T16:02:49;27.38;;;15.93;;
58528;SDS011;44322;52.968;5.816;2022-12-01T16:05:17;30.50;;;16.63;;
58528;SDS011;44322;52.968;5.816;2022-12-01T16:18:52;46.42;;;23.98;;
58528;SDS011;44322;52.968;5.816;2022-12-01T16:21:19;43.65;;;23.52;;
58528;SDS011;44322;52.968;5.816;2022-12-01T16:23:45;42.22;;;22.33;;
58528;SDS011;44322;52.968;5.816;2022-12-01T16:26:11;43.45;;;22.00;;
58528;SDS011;44322;52.968;5.816;2022-12-01T16:28:36;46.75;;;24.27;;
58528;SDS011;44322;52.968;5.816;2022-12-01T16:31:02;47.35;;;25.08;;
58528;SDS011;44322;52.968;5.816;2022-12-01T16:33:29;50.45;;;25.55;;
58528;SDS011;44322;52.968;5.816;2022-12-01T16:35:58;52.58;;;25.65;;
58528;SDS011;44322;52.968;5.816;2022-12-01T16:38:27;50.33;;;25.20;;
58528;SDS011;44322;52.968;5.816;2022-12-01T16:40:59;53.03;;;26.20;;
58528;SDS011;44322;52.968;5.816;2022-12-01T16:43:26;46.10;;;24.52;;
58528;SDS011;44322;52.968;5.816;2022-12-01T16:45:56;47.95;;;25.05;;
58528;SDS011;44322;52.968;5.816;2022-12-01T16:48:24;51.47;;;26.40;;
58528;SDS011;44322;52.968;5.816;2022-12-01T16:50:52;50.90;;;25.38;;
58528;SDS011;44322;52.968;5.816;2022-12-01T16:53:19;45.72;;;25.20;;
58528;SDS011;44322;52.968;5.816;2022-12-01T16:55:55;55.63;;;26.95;;
58528;SDS011;44322;52.968;5.816;2022-12-01T16:58:21;56.92;;;28.00;;
58528;SDS011;44322;52.968;5.816;2022-12-01T17:00:47;55.80;;;28.05;;
58528;SDS011;44322;52.968;5.816;2022-12-01T17:03:18;55.08;;;26.63;;
58528;SDS011;44322;52.968;5.816;2022-12-01T17:05:45;52.15;;;26.75;;
58528;SDS011;44322;52.968;5.816;2022-12-01T17:08:13;53.33;;;27.27;;
58528;SDS011;44322;52.968;5.816;2022-12-01T17:10:42;55.08;;;27.15;;
58528;SDS011;44322;52.968;5.816;2022-12-01T17:13:09;53.58;;;27.05;;
58528;SDS011;44322;52.968;5.816;2022-12-01T17:15:38;48.83;;;25.75;;
58528;SDS011;44322;52.968;5.816;2022-12-01T17:18:08;53.53;;;26.58;;
58528;SDS011;44322;52.968;5.816;2022-12-01T17:20:33;54.28;;;26.60;;
58528;SDS011;44322;52.968;5.816;2022-12-01T17:22:59;52.58;;;26.88;;
58528;SDS011;44322;52.968;5.816;2022-12-01T17:25:25;55.97;;;28.20;;
58528;SDS011;44322;52.968;5.816;2022-12-01T17:27:51;55.88;;;27.42;;
58528;SDS011;44322;52.968;5.816;2022-12-01T17:30:26;54.97;;;27.35;;
58528;SDS011;44322;52.968;5.816;2022-12-01T17:32:55;52.53;;;28.20;;
58528;SDS011;44322;52.968;5.816;2022-12-01T17:35:28;53.08;;;26.92;;
58528;SDS011;44322;52.968;5.816;2022-12-01T17:38:03;57.08;;;28.83;;
58528;SDS011;44322;52.968;5.816;2022-12-01T17:40:34;54.60;;;27.85;;
58528;SDS011;44322;52.968;5.816;2022-12-01T17:43:00;54.95;;;27.90;;
58528;SDS011;44322;52.968;5.816;2022-12-01T17:45:27;55.22;;;29.67;;
58528;SDS011;44322;52.968;5.816;2022-12-01T17:48:51;54.30;;;28.92;;
58528;SDS011;44322;52.968;5.816;2022-12-01T17:51:17;57.47;;;29.15;;
58528;SDS011;44322;52.968;5.816;2022-12-01T17:53:43;60.33;;;28.95;;
58528;SDS011;44322;52.968;5.816;2022-12-01T17:56:10;63.47;;;29.70;;
58528;SDS011;44322;52.968;5.816;2022-12-01T17:58:37;56.70;;;28.98;;
58528;SDS011;44322;52.968;5.816;2022-12-01T18:01:03;53.50;;;29.63;;
58528;SDS011;44322;52.968;5.816;2022-12-01T18:03:29;61.65;;;30.92;;
58528;SDS011;44322;52.968;5.816;2022-12-01T18:05:58;62.00;;;30.80;;
58528;SDS011;44322;52.968;5.816;2022-12-01T18:08:26;56.42;;;30.77;;
58528;SDS011;44322;52.968;5.816;2022-12-01T18:10:53;67.28;;;33.13;;
58528;SDS011;44322;52.968;5.816;2022-12-01T18:13:19;66.68;;;31.40;;
58528;SDS011;44322;52.968;5.816;2022-12-01T18:15:45;65.68;;;33.97;;
58528;SDS011;44322;52.968;5.816;2022-12-01T18:18:11;72.32;;;34.88;;
58528;SDS011;44322;52.968;5.816;2022-12-01T18:20:40;72.05;;;35.20;;
58528;SDS011;44322;52.968;5.816;2022-12-01T18:23:07;70.95;;;35.17;;
58528;SDS011;44322;52.968;5.816;2022-12-01T18:25:33;74.18;;;37.05;;
58528;SDS011;44322;52.968;5.816;2022-12-01T18:28:00;66.57;;;32.75;;
58528;SDS011;44322;52.968;5.816;2022-12-01T18:30:25;74.40;;;36.35;;
58528;SDS011;44322;52.968;5.816;2022-12-01T18:32:51;75.70;;;36.33;;
58528;SDS011;44322;52.968;5.816;2022-12-01T18:35:16;71.80;;;35.30;;
58528;SDS011;44322;52.968;5.816;2022-12-01T18:37:42;75.47;;;34.53;;
58528;SDS011;44322;52.968;5.816;2022-12-01T18:40:08;77.28;;;36.42;;
58528;SDS011;44322;52.968;5.816;2022-12-01T18:42:34;72.70;;;34.70;;
58528;SDS011;44322;52.968;5.816;2022-12-01T18:44:59;73.80;;;36.00;;
58528;SDS011;44322;52.968;5.816;2022-12-01T18:47:25;73.97;;;36.45;;
58528;SDS011;44322;52.968;5.816;2022-12-01T18:49:52;74.25;;;35.42;;
58528;SDS011;44322;52.968;5.816;2022-12-01T18:52:18;70.25;;;33.03;;
58528;SDS011;44322;52.968;5.816;2022-12-01T18:54:43;75.00;;;36.00;;
58528;SDS011;44322;52.968;5.816;2022-12-01T18:57:09;72.85;;;35.40;;
58528;SDS011;44322;52.968;5.816;2022-12-01T18:59:36;71.78;;;34.80;;
58528;SDS011;44322;52.968;5.816;2022-12-01T19:02:05;72.68;;;36.13;;
58528;SDS011;44322;52.968;5.816;2022-12-01T19:04:31;75.53;;;37.72;;
58528;SDS011;44322;52.968;5.816;2022-12-01T19:06:57;74.47;;;36.53;;
58528;SDS011;44322;52.968;5.816;2022-12-01T19:09:22;81.15;;;39.30;;
58528;SDS011;44322;52.968;5.816;2022-12-01T19:11:48;74.18;;;34.13;;
58528;SDS011;44322;52.968;5.816;2022-12-01T19:14:14;77.95;;;36.13;;
58528;SDS011;44322;52.968;5.816;2022-12-01T19:16:42;83.00;;;39.47;;
58528;SDS011;44322;52.968;5.816;2022-12-01T19:19:08;78.43;;;38.20;;
58528;SDS011;44322;52.968;5.816;2022-12-01T19:21:34;82.03;;;38.13;;
58528;SDS011;44322;52.968;5.816;2022-12-01T19:24:00;83.07;;;39.08;;
58528;SDS011;44322;52.968;5.816;2022-12-01T19:26:25;82.55;;;38.60;;
58528;SDS011;44322;52.968;5.816;2022-12-01T19:28:51;82.25;;;39.60;;
58528;SDS011;44322;52.968;5.816;2022-12-01T19:31:17;81.43;;;38.67;;
58528;SDS011;44322;52.968;5.816;2022-12-01T19:33:47;79.53;;;37.72;;
58528;SDS011;44322;52.968;5.816;2022-12-01T19:36:15;85.68;;;38.67;;
58528;SDS011;44322;52.968;5.816;2022-12-01T19:38:42;87.07;;;38.55;;
58528;SDS011;44322;52.968;5.816;2022-12-01T19:41:09;83.57;;;38.97;;
58528;SDS011;44322;52.968;5.816;2022-12-01T19:43:35;82.20;;;38.50;;
58528;SDS011;44322;52.968;5.816;2022-12-01T19:46:05;85.65;;;38.38;;
58528;SDS011;44322;52.968;5.816;2022-12-01T19:48:31;91.68;;;41.17;;
58528;SDS011;44322;52.968;5.816;2022-12-01T19:50:57;82.25;;;40.90;;
58528;SDS011;44322;52.968;5.816;2022-12-01T19:53:23;84.22;;;40.83;;
58528;SDS011;44322;52.968;5.816;2022-12-01T19:55:48;87.63;;;41.22;;
58528;SDS011;44322;52.968;5.816;2022-12-01T19:58:14;88.95;;;41.65;;
58528;SDS011;44322;52.968;5.816;2022-12-01T20:00:40;80.93;;;38.75;;
58528;SDS011;44322;52.968;5.816;2022-12-01T20:03:05;84.88;;;40.28;;
58528;SDS011;44322;52.968;5.816;2022-12-01T20:05:31;87.63;;;41.60;;
58528;SDS011;44322;52.968;5.816;2022-12-01T20:07:57;86.32;;;40.80;;
58528;SDS011;44322;52.968;5.816;2022-12-01T20:10:22;94.03;;;41.15;;
58528;SDS011;44322;52.968;5.816;2022-12-01T20:12:49;89.47;;;41.15;;
58528;SDS011;44322;52.968;5.816;2022-12-01T20:15:14;91.97;;;41.63;;
58528;SDS011;44322;52.968;5.816;2022-12-01T20:17:40;85.70;;;41.28;;
58528;SDS011;44322;52.968;5.816;2022-12-01T20:20:07;89.72;;;39.42;;
58528;SDS011;44322;52.968;5.816;2022-12-01T20:22:34;85.28;;;40.40;;
58528;SDS011;44322;52.968;5.816;2022-12-01T20:25:03;86.68;;;41.25;;
58528;SDS011;44322;52.968;5.816;2022-12-01T20:27:35;89.22;;;41.58;;
58528;SDS011;44322;52.968;5.816;2022-12-01T20:30:01;86.40;;;39.67;;
58528;SDS011;44322;52.968;5.816;2022-12-01T20:32:28;89.85;;;41.25;;
58528;SDS011;44322;52.968;5.816;2022-12-01T20:34:53;81.78;;;40.03;;
58528;SDS011;44322;52.968;5.816;2022-12-01T20:37:19;90.25;;;41.83;;
58528;SDS011;44322;52.968;5.816;2022-12-01T20:39:45;79.07;;;36.63;;
58528;SDS011;44322;52.968;5.816;2022-12-01T20:42:11;87.55;;;39.42;;
58528;SDS011;44322;52.968;5.816;2022-12-01T20:44:37;84.88;;;38.85;;